KMGW

Morgantown Municipal-Walter L Bill Hart Field Airport

Morgantown, West Virginia, USA
METAR KMGW 260253Z 00000KT 10SM CLR 09/02 A3008 RMK AO2 SLP187 T00890022 51013
Observed Flight Rules
Feb-26 @ 02:53 UTC (20 minutes ago) Visual Flight Rules
Wind Visibility Clouds
Calm 10 miles
  • Clear skies
Temperatures Readings
Current 9°C / 48°F
Dewpoint 2°C / 36°F
Humidity 62%
Altimeter 30.08" Hg
Pressure 1018.7 hPa
Elevation 378
METAR KMGW 260253Z 00000KT 10SM CLR 09/02 A3008 RMK AO2 SLP187 T00890022 51013
Observed Flight Rules
Feb-26 @ 02:53 UTC
(20 minutes ago)
VFR
Wind Visibility
Calm 10 miles
Clouds
  • Clear skies
Temperature Dewpoint
9°C / 48°F 2°C / 36°F
Humidity Altimeter Pressure
62% 30.08" Hg 1018.7 hPa